createdAt,value
2019-05-02T00:01:50.562Z,22.37
2019-05-02T00:04:21.027Z,19.27
2019-05-02T00:07:14.546Z,22.50
2019-05-02T00:09:48.209Z,20.43
2019-05-02T00:12:17.488Z,20.23
2019-05-02T00:14:46.748Z,19.87
2019-05-02T00:17:20.445Z,22.00
2019-05-02T00:19:49.894Z,21.93
2019-05-02T00:22:20.012Z,19.20
2019-05-02T00:24:48.950Z,20.77
2019-05-02T00:27:18.085Z,20.63
2019-05-02T00:29:46.856Z,22.53
2019-05-02T00:32:18.226Z,21.30
2019-05-02T00:34:46.249Z,20.70
2019-05-02T00:37:18.760Z,21.57
2019-05-02T00:39:49.213Z,20.13
2019-05-02T00:42:17.612Z,22.13
2019-05-02T00:44:48.246Z,20.20
2019-05-02T00:47:25.186Z,21.00
2019-05-02T00:49:54.091Z,23.13
2019-05-02T00:52:22.851Z,21.93
2019-05-02T00:54:58.698Z,23.07
2019-05-02T00:57:26.141Z,22.23
2019-05-02T00:59:54.946Z,22.30
2019-05-02T01:02:30.212Z,27.77
2019-05-02T01:05:02.878Z,21.80
2019-05-02T01:07:31.350Z,21.53
2019-05-02T01:10:00.223Z,23.77
2019-05-02T01:12:29.035Z,22.77
2019-05-02T01:15:03.397Z,22.30
2019-05-02T01:17:33.380Z,25.50
2019-05-02T01:20:02.224Z,21.37
2019-05-02T01:22:31.435Z,22.53
2019-05-02T01:25:00.303Z,24.27
2019-05-02T01:27:42.485Z,24.23
2019-05-02T01:30:18.780Z,22.17
2019-05-02T01:32:56.475Z,23.33
2019-05-02T01:35:45.064Z,26.27
2019-05-02T01:38:26.406Z,21.43
2019-05-02T01:40:56.146Z,24.83
2019-05-02T01:43:27.903Z,24.23
2019-05-02T01:46:01.784Z,24.23
2019-05-02T01:48:31.768Z,24.50
2019-05-02T01:51:04.259Z,23.53
2019-05-02T01:53:34.165Z,24.60
2019-05-02T01:56:05.836Z,22.77
2019-05-02T01:58:34.732Z,22.60
2019-05-02T02:01:05.401Z,24.50
2019-05-02T02:03:40.617Z,26.43
2019-05-02T02:06:08.124Z,25.87
2019-05-02T02:08:37.862Z,26.77
2019-05-02T02:11:06.671Z,26.30
2019-05-02T02:13:36.583Z,27.60
2019-05-02T02:16:06.219Z,26.07
2019-05-02T02:18:38.933Z,27.20
2019-05-02T02:21:35.893Z,27.80
2019-05-02T02:24:09.342Z,28.27
2019-05-02T02:26:38.175Z,28.77
2019-05-02T02:29:07.801Z,28.43
2019-05-02T02:31:40.003Z,30.80
2019-05-02T02:34:08.168Z,29.83
2019-05-02T02:36:37.216Z,36.00
2019-05-02T02:39:14.138Z,34.13
2019-05-02T02:41:38.294Z,30.30
2019-05-02T02:44:40.071Z,32.33
2019-05-02T02:47:11.815Z,30.00
2019-05-02T02:49:40.103Z,29.57
2019-05-02T02:52:08.892Z,31.13
2019-05-02T02:54:43.422Z,32.10
2019-05-02T02:57:20.546Z,31.17
2019-05-02T02:59:38.939Z,32.30
2019-05-02T03:02:09.955Z,29.93
2019-05-02T03:04:44.071Z,31.30
2019-05-02T03:07:09.460Z,30.73
2019-05-02T03:09:38.319Z,29.53
2019-05-02T03:12:25.177Z,31.17
2019-05-02T03:14:56.344Z,29.33
2019-05-02T03:17:28.755Z,30.87
2019-05-02T03:20:01.149Z,28.47
2019-05-02T03:22:27.550Z,27.50
2019-05-02T03:24:56.504Z,28.40
2019-05-02T03:27:29.821Z,29.40
2019-05-02T03:29:57.309Z,29.67
2019-05-02T03:32:34.656Z,29.17
2019-05-02T03:34:56.783Z,28.03
2019-05-02T03:37:25.898Z,30.50
2019-05-02T03:39:57.836Z,30.33
2019-05-02T03:42:26.226Z,30.47
2019-05-02T03:44:58.466Z,29.27
2019-05-02T03:47:26.652Z,28.03
2019-05-02T03:49:55.583Z,30.50
2019-05-02T03:52:24.417Z,31.00
2019-05-02T03:54:53.354Z,28.77
2019-05-02T03:57:32.016Z,29.63
2019-05-02T03:59:53.250Z,29.53
2019-05-02T04:02:22.449Z,29.43
2019-05-02T04:04:54.426Z,28.57
2019-05-02T04:07:24.551Z,29.00
2019-05-02T04:09:53.445Z,28.00
2019-05-02T04:12:22.424Z,27.10
2019-05-02T04:14:55.346Z,29.73
2019-05-02T04:17:28.463Z,25.90
2019-05-02T04:19:53.272Z,28.60
2019-05-02T04:22:22.995Z,26.03
2019-05-02T04:24:56.837Z,27.53
2019-05-02T04:27:27.953Z,28.87
2019-05-02T04:29:52.924Z,25.27
2019-05-02T04:32:21.739Z,25.90
2019-05-02T04:34:55.745Z,28.90
2019-05-02T04:37:21.540Z,27.80
2019-05-02T04:39:53.877Z,26.43
2019-05-02T04:42:23.206Z,27.50
2019-05-02T04:45:11.870Z,28.83
2019-05-02T04:47:22.357Z,26.77
2019-05-02T04:49:52.142Z,29.00
2019-05-02T04:52:21.467Z,34.90
2019-05-02T04:54:50.329Z,32.30
2019-05-02T04:57:19.313Z,34.37
2019-05-02T04:59:50.457Z,32.20
2019-05-02T05:02:21.228Z,34.10
2019-05-02T05:04:49.605Z,31.97
2019-05-02T05:07:18.556Z,31.20
2019-05-02T05:09:56.786Z,32.07
2019-05-02T05:12:19.413Z,33.33
2019-05-02T05:14:50.523Z,33.47
2019-05-02T05:17:20.114Z,34.07
2019-05-02T05:19:49.163Z,30.33
2019-05-02T05:22:18.535Z,32.43
2019-05-02T05:24:53.188Z,33.13
2019-05-02T05:27:22.936Z,32.50
2019-05-02T05:29:53.769Z,33.60
2019-05-02T05:32:22.658Z,31.67
2019-05-02T05:34:51.444Z,33.00
2019-05-02T05:37:20.508Z,31.40
2019-05-02T05:39:52.523Z,30.27
2019-05-02T05:42:23.434Z,31.50
2019-05-02T05:44:50.266Z,35.23
2019-05-02T05:47:21.305Z,31.27
2019-05-02T05:49:52.275Z,31.17
2019-05-02T05:52:20.243Z,29.13
2019-05-02T05:54:49.099Z,30.33
2019-05-02T05:57:21.048Z,33.87
2019-05-02T05:59:48.614Z,30.50
2019-05-02T06:02:18.388Z,32.87
2019-05-02T06:04:49.983Z,31.23
2019-05-02T06:07:19.861Z,31.47
2019-05-02T06:09:48.407Z,32.77
2019-05-02T06:12:17.157Z,31.63
2019-05-02T06:14:46.573Z,33.03
2019-05-02T06:17:15.875Z,33.60
2019-05-02T06:19:48.179Z,31.63
2019-05-02T06:22:16.050Z,33.57
2019-05-02T06:24:50.696Z,32.63
2019-05-02T06:27:20.815Z,31.03
2019-05-02T06:29:51.280Z,36.63
2019-05-02T06:32:19.347Z,33.47
2019-05-02T06:34:49.094Z,35.57
2019-05-02T06:37:18.008Z,33.27
2019-05-02T06:39:46.873Z,33.27
2019-05-02T06:42:15.663Z,34.07
2019-05-02T06:44:44.466Z,34.97
2019-05-02T06:47:13.259Z,35.13
2019-05-02T06:49:42.125Z,36.23
2019-05-02T06:52:10.997Z,38.87
2019-05-02T06:54:39.962Z,37.80
2019-05-02T06:57:09.049Z,36.30
2019-05-02T06:59:37.865Z,35.07
2019-05-02T07:02:07.514Z,38.43
2019-05-02T07:04:36.379Z,38.77
2019-05-02T07:07:05.740Z,36.23
2019-05-02T07:09:40.948Z,36.23
2019-05-02T07:12:09.794Z,36.07
2019-05-02T07:14:36.278Z,37.17
2019-05-02T07:17:26.556Z,38.77
2019-05-02T07:19:58.937Z,37.40
2019-05-02T07:22:28.139Z,37.47
2019-05-02T07:24:56.948Z,38.90
2019-05-02T07:27:28.199Z,37.53
2019-05-02T07:29:57.648Z,36.67
2019-05-02T07:32:27.092Z,38.77
2019-05-02T07:34:55.917Z,40.47
2019-05-02T07:37:24.877Z,43.77
2019-05-02T07:39:53.678Z,39.50
2019-05-02T07:42:22.613Z,41.23
2019-05-02T07:44:51.376Z,42.37
2019-05-02T07:47:20.357Z,41.97
2019-05-02T07:49:49.167Z,38.60
2019-05-02T07:52:17.950Z,40.47
2019-05-02T07:54:46.737Z,41.93
2019-05-02T07:57:15.579Z,39.47
2019-05-02T07:59:49.558Z,39.37
2019-05-02T08:02:20.328Z,41.80
2019-05-02T08:04:47.658Z,39.47
2019-05-02T08:07:21.080Z,37.07
2019-05-02T08:09:47.175Z,43.30
2019-05-02T08:12:16.043Z,42.67
2019-05-02T08:14:44.811Z,40.57
2019-05-02T08:17:17.160Z,41.17
2019-05-02T08:19:44.287Z,42.93
2019-05-02T08:22:14.829Z,39.70
2019-05-02T08:24:43.608Z,42.50
2019-05-02T08:27:40.753Z,44.37
2019-05-02T08:30:15.653Z,44.77
2019-05-02T08:32:44.444Z,42.93
2019-05-02T08:35:13.285Z,40.27
2019-05-02T08:37:43.082Z,39.97
2019-05-02T08:40:12.733Z,42.83
2019-05-02T08:42:41.482Z,42.63
2019-05-02T08:45:12.607Z,45.83
2019-05-02T08:47:44.642Z,40.57
2019-05-02T08:50:15.154Z,40.50
2019-05-02T08:52:48.001Z,44.00
2019-05-02T08:55:16.574Z,41.73
2019-05-02T08:57:45.529Z,44.17
2019-05-02T09:00:15.991Z,42.23
2019-05-02T09:02:44.759Z,48.50
2019-05-02T09:05:13.901Z,43.73
2019-05-02T09:07:43.308Z,49.63
2019-05-02T09:10:13.860Z,47.53
2019-05-02T09:12:45.414Z,43.97
2019-05-02T09:15:25.518Z,48.83
2019-05-02T09:18:02.838Z,49.47
2019-05-02T09:20:42.342Z,46.00
2019-05-02T09:23:13.186Z,42.90
2019-05-02T09:25:43.715Z,45.10
2019-05-02T09:28:23.968Z,46.23
2019-05-02T09:30:52.430Z,43.83
2019-05-02T09:33:22.618Z,46.60
2019-05-02T09:35:51.663Z,48.57
2019-05-02T09:38:22.227Z,47.27
2019-05-02T09:40:56.029Z,48.83
2019-05-02T09:43:22.935Z,46.97
2019-05-02T09:45:52.149Z,46.83
2019-05-02T09:48:22.706Z,46.43
2019-05-02T09:50:52.808Z,46.67
2019-05-02T09:53:25.541Z,43.93
2019-05-02T09:55:57.659Z,50.60
2019-05-02T09:58:24.016Z,45.17
2019-05-02T10:01:07.210Z,49.37
2019-05-02T10:03:36.307Z,50.17
2019-05-02T10:06:08.400Z,47.93
2019-05-02T10:08:38.226Z,50.37
2019-05-02T10:11:06.596Z,46.57
2019-05-02T10:13:35.477Z,51.50
2019-05-02T10:16:04.455Z,50.37
2019-05-02T10:18:33.362Z,55.17
2019-05-02T10:21:02.980Z,51.00
2019-05-02T10:23:32.374Z,63.40
2019-05-02T10:26:02.862Z,49.60
2019-05-02T10:28:32.185Z,46.97
2019-05-02T10:31:02.264Z,50.40
2019-05-02T10:33:33.633Z,45.60
2019-05-02T10:36:02.677Z,46.87
2019-05-02T10:38:32.591Z,44.97
2019-05-02T10:41:02.649Z,45.90
2019-05-02T10:43:32.955Z,47.13
2019-05-02T10:46:07.775Z,40.77
2019-05-02T10:48:44.544Z,39.17
2019-05-02T10:51:31.685Z,39.90
2019-05-02T10:54:03.440Z,38.70
2019-05-02T10:56:32.517Z,37.93
2019-05-02T10:59:02.693Z,39.00
2019-05-02T11:01:38.489Z,35.43
2019-05-02T11:04:09.049Z,32.70
2019-05-02T11:06:42.560Z,31.97
2019-05-02T11:09:12.030Z,29.83
2019-05-02T11:11:42.506Z,32.07
2019-05-02T11:14:24.037Z,33.17
2019-05-02T11:16:57.689Z,32.20
2019-05-02T11:19:38.680Z,34.83
2019-05-02T11:22:07.560Z,31.50
2019-05-02T11:24:37.305Z,31.37
2019-05-02T11:27:24.886Z,34.57
2019-05-02T11:29:54.276Z,30.00
2019-05-02T11:32:24.632Z,34.47
2019-05-02T11:34:55.747Z,31.43
2019-05-02T11:37:24.669Z,34.93
2019-05-02T11:39:59.573Z,30.83
2019-05-02T11:42:27.236Z,33.35
2019-05-02T11:44:54.479Z,28.67
2019-05-02T11:47:26.572Z,31.53
2019-05-02T11:49:56.160Z,29.20
2019-05-02T11:52:27.411Z,28.63
2019-05-02T11:54:56.290Z,29.23
2019-05-02T11:57:28.659Z,26.85
2019-05-02T11:59:59.522Z,27.23
2019-05-02T12:02:59.672Z,31.23
2019-05-02T12:05:35.658Z,29.23
2019-05-02T12:08:08.022Z,28.27
2019-05-02T12:10:36.782Z,28.77
2019-05-02T12:13:06.565Z,27.97
2019-05-02T12:15:42.128Z,26.93
2019-05-02T12:18:12.094Z,25.90
2019-05-02T12:20:42.548Z,18.23
2019-05-02T12:23:13.012Z,20.33
2019-05-02T12:25:42.430Z,20.37
2019-05-02T12:28:11.963Z,16.53
2019-05-02T12:30:41.953Z,16.33
2019-05-02T12:33:12.290Z,16.23
2019-05-02T12:35:43.281Z,17.50
2019-05-02T12:38:12.375Z,19.33
2019-05-02T12:40:42.879Z,17.80
2019-05-02T12:43:12.257Z,17.77
2019-05-02T12:45:42.086Z,18.30
2019-05-02T12:48:13.812Z,19.63
2019-05-02T12:50:44.314Z,18.17
2019-05-02T12:53:16.267Z,17.13
2019-05-02T12:55:48.166Z,16.53
2019-05-02T12:58:23.447Z,17.77
2019-05-02T13:00:58.272Z,15.87
2019-05-02T13:03:40.523Z,16.83
2019-05-02T13:06:12.306Z,13.47
2019-05-02T13:08:52.860Z,13.43
2019-05-02T13:11:52.297Z,12.10
2019-05-02T13:14:25.062Z,14.67
2019-05-02T13:17:01.451Z,16.13
2019-05-02T13:19:37.995Z,13.07
2019-05-02T13:22:08.334Z,16.53
2019-05-02T13:24:39.878Z,16.60
2019-05-02T13:27:12.685Z,15.10
2019-05-02T13:29:42.827Z,16.23
2019-05-02T13:32:24.621Z,20.27
2019-05-02T13:35:12.871Z,20.03
2019-05-02T13:37:43.648Z,16.70
2019-05-02T13:40:22.635Z,17.83
2019-05-02T13:42:52.353Z,26.20
2019-05-02T13:45:41.843Z,23.77
2019-05-02T13:48:14.455Z,20.47
2019-05-02T13:50:43.430Z,21.30
2019-05-02T13:53:12.807Z,22.23
2019-05-02T13:55:47.987Z,16.67
2019-05-02T13:58:29.006Z,18.00
2019-05-02T14:00:54.257Z,17.50
2019-05-02T14:03:23.526Z,18.53
2019-05-02T14:05:53.923Z,17.33
2019-05-02T14:08:35.076Z,22.50
2019-05-02T14:11:19.357Z,20.87
2019-05-02T14:13:48.174Z,20.43
2019-05-02T14:16:17.134Z,23.77
2019-05-02T14:18:45.964Z,24.43
2019-05-02T14:21:14.749Z,21.13
2019-05-02T14:23:43.589Z,23.60
2019-05-02T14:26:12.479Z,22.40
2019-05-02T14:28:43.243Z,22.93
2019-05-02T14:31:11.947Z,25.67
2019-05-02T14:33:45.924Z,26.87
2019-05-02T14:36:15.989Z,20.90
2019-05-02T14:38:44.738Z,17.03
2019-05-02T14:41:15.876Z,20.27
2019-05-02T14:43:55.802Z,13.90
2019-05-02T14:46:35.343Z,12.97
2019-05-02T14:49:00.181Z,14.63
2019-05-02T14:51:28.967Z,12.43
2019-05-02T14:54:03.712Z,12.93
2019-05-02T14:56:54.166Z,13.03
2019-05-02T14:59:23.348Z,11.97
2019-05-02T15:01:57.746Z,10.23
2019-05-02T15:04:25.827Z,11.10
2019-05-02T15:06:54.789Z,9.90
2019-05-02T15:09:26.736Z,8.53
2019-05-02T15:12:02.362Z,10.03
2019-05-02T15:14:33.426Z,10.30
2019-05-02T15:17:03.913Z,7.73
2019-05-02T15:19:33.450Z,6.83
2019-05-02T15:22:02.803Z,7.00
2019-05-02T15:24:37.382Z,7.83
2019-05-02T15:27:17.891Z,4.77
2019-05-02T15:29:46.851Z,6.33
2019-05-02T15:32:44.973Z,5.00
2019-05-02T15:35:26.930Z,4.97
2019-05-02T15:37:56.753Z,4.80
2019-05-02T15:40:43.352Z,4.30
2019-05-02T15:43:02.856Z,7.20
2019-05-02T15:45:28.961Z,6.30
2019-05-02T15:47:58.392Z,6.70
2019-05-02T15:50:29.570Z,4.20
2019-05-02T15:53:09.751Z,3.50
2019-05-02T15:55:39.538Z,10.03
2019-05-02T15:58:07.573Z,6.33
2019-05-02T16:00:39.710Z,7.30
2019-05-02T16:03:08.949Z,9.03
2019-05-02T16:05:41.228Z,5.90
2019-05-02T16:08:09.064Z,7.27
2019-05-02T16:10:40.079Z,6.07
2019-05-02T16:13:13.546Z,3.30
2019-05-02T16:15:42.676Z,5.80
2019-05-02T16:18:12.766Z,5.73
2019-05-02T16:20:49.280Z,2.80
2019-05-02T16:23:18.999Z,3.17
2019-05-02T16:25:48.893Z,5.67
2019-05-02T16:28:17.683Z,3.80
2019-05-02T16:30:48.125Z,3.63
2019-05-02T16:33:20.691Z,3.23
2019-05-02T16:35:54.387Z,4.80
2019-05-02T16:38:22.234Z,2.67
2019-05-02T16:40:53.652Z,2.10
2019-05-02T16:43:24.751Z,2.47
2019-05-02T16:45:54.118Z,4.50
2019-05-02T16:48:23.912Z,3.83
2019-05-02T16:50:52.844Z,3.60
2019-05-02T16:53:24.992Z,4.83
2019-05-02T16:55:58.470Z,3.33
2019-05-02T16:58:25.550Z,4.47
2019-05-02T17:00:55.321Z,2.53
2019-05-02T17:03:26.427Z,3.47
2019-05-02T17:05:54.713Z,3.97
2019-05-02T17:08:35.535Z,4.00
2019-05-02T17:11:15.776Z,2.73
2019-05-02T17:13:46.044Z,2.43
2019-05-02T17:16:17.328Z,1.83
2019-05-02T17:18:48.288Z,2.43
2019-05-02T17:21:21.853Z,3.10
2019-05-02T17:23:52.359Z,2.10
2019-05-02T17:26:24.171Z,0.80
2019-05-02T17:28:54.492Z,3.47
2019-05-02T17:31:23.923Z,1.20
2019-05-02T17:33:54.797Z,3.10
2019-05-02T17:36:28.641Z,3.40
2019-05-02T17:39:06.429Z,2.10
2019-05-02T17:41:31.870Z,2.07
2019-05-02T17:44:24.899Z,2.33
2019-05-02T17:47:01.670Z,2.57
2019-05-02T17:49:36.697Z,1.60
2019-05-02T17:52:26.818Z,2.27
2019-05-02T17:54:57.331Z,2.67
2019-05-02T17:57:28.519Z,4.43
2019-05-02T17:59:56.410Z,1.47
2019-05-02T18:02:26.107Z,4.70
2019-05-02T18:07:48.624Z,5.33
2019-05-02T18:10:22.138Z,2.60
2019-05-02T18:12:56.655Z,2.37
2019-05-02T18:15:23.951Z,2.10
2019-05-02T18:17:54.637Z,3.77
2019-05-02T18:20:25.359Z,2.47
2019-05-02T18:22:54.522Z,3.83
2019-05-02T18:25:25.382Z,3.37
2019-05-02T18:27:54.628Z,0.93
2019-05-02T18:30:26.900Z,3.87
2019-05-02T18:32:57.820Z,2.80
2019-05-02T18:35:25.717Z,6.37
2019-05-02T18:37:54.630Z,2.43
2019-05-02T18:40:27.774Z,3.47
2019-05-02T18:42:56.515Z,2.60
2019-05-02T18:45:28.609Z,1.43
2019-05-02T18:48:02.478Z,2.00
2019-05-02T18:50:44.532Z,2.93
2019-05-02T18:53:25.702Z,5.07
2019-05-02T18:55:56.811Z,3.33
2019-05-02T18:58:24.212Z,3.10
2019-05-02T19:00:53.144Z,5.50
2019-05-02T19:03:23.499Z,3.57
2019-05-02T19:05:57.210Z,3.60
2019-05-02T19:08:31.211Z,6.33
2019-05-02T19:11:06.039Z,4.43
2019-05-02T19:13:30.002Z,2.90
2019-05-02T19:16:01.867Z,4.67
2019-05-02T19:18:32.359Z,7.80
2019-05-02T19:21:03.429Z,7.83
2019-05-02T19:23:35.323Z,4.20
2019-05-02T19:26:15.011Z,8.00
2019-05-02T19:29:17.274Z,3.63
2019-05-02T19:31:52.538Z,7.30
2019-05-02T19:34:26.419Z,7.87
2019-05-02T19:36:52.988Z,7.43
2019-05-02T19:39:24.230Z,8.00
2019-05-02T19:41:52.814Z,5.57
2019-05-02T19:44:29.249Z,5.00
2019-05-02T19:46:52.527Z,6.20
2019-05-02T19:49:22.444Z,6.17
2019-05-02T19:51:56.412Z,5.87
2019-05-02T19:54:22.742Z,7.77
2019-05-02T19:56:52.363Z,8.10
2019-05-02T19:59:26.263Z,5.03
2019-05-02T20:01:56.923Z,5.40
2019-05-02T20:04:24.655Z,8.20
2019-05-02T20:06:53.565Z,7.77
2019-05-02T20:09:25.168Z,6.77
2019-05-02T20:11:54.396Z,7.53
2019-05-02T20:14:23.286Z,3.13
2019-05-02T20:16:54.088Z,7.17
2019-05-02T20:19:26.908Z,3.50
2019-05-02T20:22:09.525Z,5.70
2019-05-02T20:24:58.337Z,3.70
2019-05-02T20:27:28.274Z,4.20
2019-05-02T20:29:56.710Z,6.17
2019-05-02T20:32:25.701Z,6.70
2019-05-02T20:34:56.468Z,3.77
2019-05-02T20:37:25.636Z,4.00
2019-05-02T20:39:55.062Z,5.97
2019-05-02T20:42:24.724Z,6.30
2019-05-02T20:44:54.827Z,6.53
2019-05-02T20:47:25.884Z,7.23
2019-05-02T20:49:55.483Z,7.33
2019-05-02T20:52:25.136Z,6.80
2019-05-02T20:54:53.908Z,8.80
2019-05-02T20:57:26.417Z,9.73
2019-05-02T20:59:57.133Z,7.47
2019-05-02T21:02:26.977Z,6.87
2019-05-02T21:04:56.496Z,4.47
2019-05-02T21:08:01.878Z,3.70
2019-05-02T21:10:34.986Z,5.90
2019-05-02T21:13:06.784Z,2.47
2019-05-02T21:15:36.888Z,4.40
2019-05-02T21:18:08.199Z,5.03
2019-05-02T21:20:37.238Z,6.33
2019-05-02T21:23:09.577Z,3.93
2019-05-02T21:25:44.330Z,5.83
2019-05-02T21:28:13.760Z,4.07
2019-05-02T21:30:42.649Z,6.00
2019-05-02T21:33:32.117Z,3.87
2019-05-02T21:36:01.400Z,5.20
2019-05-02T21:38:31.977Z,7.10
2019-05-02T21:41:01.464Z,8.30
2019-05-02T21:43:32.123Z,5.73
2019-05-02T21:46:02.367Z,5.37
2019-05-02T21:48:32.656Z,4.17
2019-05-02T21:51:09.635Z,5.77
2019-05-02T21:53:58.394Z,6.93
2019-05-02T21:56:42.909Z,7.77
2019-05-02T21:59:12.698Z,4.90
2019-05-02T22:01:47.633Z,6.90
2019-05-02T22:04:16.560Z,7.77
2019-05-02T22:06:45.699Z,7.63
2019-05-02T22:09:14.927Z,15.27
2019-05-02T22:11:47.684Z,7.83
2019-05-02T22:14:22.302Z,20.53
2019-05-02T22:19:45.355Z,6.30
2019-05-02T22:22:14.870Z,6.03
2019-05-02T22:24:44.194Z,2.40
2019-05-02T22:27:14.274Z,4.47
2019-05-02T22:29:44.038Z,5.47
2019-05-02T22:32:13.217Z,4.67
2019-05-02T22:34:42.625Z,5.53
2019-05-02T22:37:14.873Z,4.10
2019-05-02T22:39:57.644Z,4.73
2019-05-02T22:42:27.972Z,5.40
2019-05-02T22:44:58.013Z,5.77
2019-05-02T22:47:29.220Z,4.40
2019-05-02T22:50:02.979Z,4.83
2019-05-02T22:52:32.724Z,5.87
2019-05-02T22:55:05.024Z,4.07
2019-05-02T22:57:34.851Z,4.63
2019-05-02T23:00:04.253Z,4.93
2019-05-02T23:02:34.270Z,5.67
2019-05-02T23:05:03.268Z,7.23
2019-05-02T23:07:32.321Z,5.53
2019-05-02T23:10:02.163Z,7.60
2019-05-02T23:12:37.363Z,7.30
2019-05-02T23:15:06.743Z,4.57
2019-05-02T23:17:35.591Z,7.87
2019-05-02T23:20:05.159Z,6.83
2019-05-02T23:22:34.063Z,6.43
2019-05-02T23:25:14.282Z,5.43
2019-05-02T23:27:51.737Z,5.87
2019-05-02T23:30:22.690Z,5.15
2019-05-02T23:32:51.776Z,7.77
2019-05-02T23:35:20.734Z,5.83
2019-05-02T23:37:49.843Z,7.60
2019-05-02T23:40:19.214Z,7.80
2019-05-02T23:42:48.002Z,4.60
2019-05-02T23:45:16.977Z,6.07
2019-05-02T23:51:06.183Z,4.83
2019-05-02T23:53:34.972Z,6.83
2019-05-02T23:56:05.149Z,7.17
2019-05-02T23:58:34.139Z,5.90
